Time;durP1;ratioP1;P1;durP2;ratioP2;P2;SDS_P1;SDS_P2;PMS_P1;PMS_P2;Temp;Humidity;BMP_temperature;BMP_pressure;BME280_temperature;BME280_humidity;BME280_pressure;Samples;Min_cycle;Max_cycle;Signal;HPM_P1;HPM_P2
2021/07/31 00:01:08;;;;;;;15.35;5.40;;;;;;;;;;4342876;33;20182;-77
2021/07/31 00:03:33;;;;;;;12.52;5.20;;;;;;;;;;4343615;33;20187;-78
2021/07/31 00:06:04;;;;;;;13.43;4.87;;;;;;;;;;4343146;33;20579;-77
2021/07/31 00:08:30;;;;;;;13.52;4.25;;;;;;;;;;4342744;33;20159;-78
2021/07/31 00:10:58;;;;;;;16.17;5.15;;;;;;;;;;4344210;33;20128;-77
2021/07/31 00:13:25;;;;;;;12.27;4.80;;;;;;;;;;4342816;33;20266;-77
2021/07/31 00:15:57;;;;;;;14.25;5.03;;;;;;;;;;4343680;33;20147;-77
2021/07/31 00:18:22;;;;;;;19.83;5.75;;;;;;;;;;4344029;33;20174;-77
2021/07/31 00:20:48;;;;;;;15.00;5.10;;;;;;;;;;4357177;32;20662;-76
2021/07/31 00:23:13;;;;;;;16.98;5.20;;;;;;;;;;4421189;32;20145;-77
2021/07/31 00:25:38;;;;;;;10.60;4.35;;;;;;;;;;4372214;32;20181;-76
2021/07/31 00:28:11;;;;;;;17.05;4.72;;;;;;;;;;4345614;33;20159;-77
2021/07/31 00:30:37;;;;;;;9.43;4.20;;;;;;;;;;4359222;33;20128;-76
2021/07/31 00:33:02;;;;;;;14.65;6.22;;;;;;;;;;4359207;33;20470;-77
2021/07/31 00:35:27;;;;;;;17.40;4.60;;;;;;;;;;4345159;33;20620;-76
2021/07/31 00:37:59;;;;;;;17.48;4.78;;;;;;;;;;4359265;33;20206;-78
2021/07/31 00:40:24;;;;;;;11.95;4.10;;;;;;;;;;4345317;33;20185;-76
2021/07/31 00:42:50;;;;;;;14.15;3.67;;;;;;;;;;4423046;32;21043;-77
2021/07/31 00:45:15;;;;;;;6.57;3.28;;;;;;;;;;4422200;32;20201;-77
2021/07/31 00:47:42;;;;;;;11.65;3.62;;;;;;;;;;4422742;32;20485;-77
2021/07/31 00:50:07;;;;;;;10.38;3.58;;;;;;;;;;4419841;32;20146;-78
2021/07/31 00:52:33;;;;;;;10.68;3.58;;;;;;;;;;4391812;32;20176;-75
2021/07/31 00:55:00;;;;;;;7.75;3.03;;;;;;;;;;4405498;32;20185;-76
2021/07/31 00:57:25;;;;;;;9.60;3.37;;;;;;;;;;4392089;32;20154;-77
2021/07/31 00:59:51;;;;;;;7.82;3.15;;;;;;;;;;4398157;32;20210;-77
2021/07/31 01:02:19;;;;;;;9.00;3.40;;;;;;;;;;4433618;32;20145;-76
2021/07/31 01:04:45;;;;;;;14.85;4.75;;;;;;;;;;4436736;32;20126;-76
2021/07/31 01:07:19;;;;;;;16.58;5.40;;;;;;;;;;4421901;32;20195;-76
2021/07/31 01:09:47;;;;;;;15.52;4.87;;;;;;;;;;4422394;32;20476;-76
2021/07/31 01:12:15;;;;;;;8.80;4.00;;;;;;;;;;4436274;32;20164;-76
2021/07/31 01:14:41;;;;;;;8.73;4.37;;;;;;;;;;4432262;32;20164;-75
2021/07/31 01:17:15;;;;;;;12.80;3.90;;;;;;;;;;4420484;32;20130;-76
2021/07/31 01:19:40;;;;;;;9.27;3.60;;;;;;;;;;4404052;32;20165;-76
2021/07/31 01:22:09;;;;;;;8.27;3.33;;;;;;;;;;4410262;32;20141;-75
2021/07/31 01:24:34;;;;;;;8.13;3.90;;;;;;;;;;4420447;32;20162;-76
2021/07/31 01:27:00;;;;;;;11.38;3.90;;;;;;;;;;4420922;32;20447;-76
2021/07/31 01:29:25;;;;;;;16.20;4.97;;;;;;;;;;4420439;32;20130;-77
2021/07/31 01:31:59;;;;;;;15.05;4.90;;;;;;;;;;4420425;32;20205;-77
2021/07/31 01:34:25;;;;;;;16.80;6.12;;;;;;;;;;4420737;32;20171;-76
2021/07/31 01:36:50;;;;;;;15.75;5.30;;;;;;;;;;4420784;32;20204;-76
2021/07/31 01:39:21;;;;;;;15.40;5.37;;;;;;;;;;4406209;32;20154;-77
2021/07/31 01:41:47;;;;;;;10.75;4.40;;;;;;;;;;4429384;32;20176;-75
2021/07/31 01:44:13;;;;;;;12.10;4.60;;;;;;;;;;4435964;32;20171;-76
2021/07/31 01:46:38;;;;;;;11.55;4.00;;;;;;;;;;4436231;32;20172;-76
2021/07/31 01:49:09;;;;;;;6.25;3.47;;;;;;;;;;4421747;32;20154;-76
2021/07/31 01:51:38;;;;;;;8.73;3.72;;;;;;;;;;4435659;32;20156;-75
2021/07/31 01:54:06;;;;;;;10.52;4.25;;;;;;;;;;4421328;32;20220;-76
2021/07/31 01:56:31;;;;;;;12.75;5.32;;;;;;;;;;4360223;32;20163;-75
2021/07/31 01:58:57;;;;;;;21.15;7.85;;;;;;;;;;4374753;32;20173;-76
2021/07/31 02:01:23;;;;;;;13.30;7.15;;;;;;;;;;4375258;32;20199;-76
2021/07/31 02:03:48;;;;;;;20.10;6.70;;;;;;;;;;4375245;32;20624;-75
2021/07/31 02:06:21;;;;;;;18.58;7.10;;;;;;;;;;4362106;32;20167;-75
2021/07/31 02:09:03;;;;;;;15.90;6.45;;;;;;;;;;4375658;32;20143;-76
2021/07/31 02:14:57;;;;;;;12.90;6.75;;;;;;;;;;4363323;32;20233;-76
2021/07/31 02:17:22;;;;;;;12.52;6.28;;;;;;;;;;4375532;32;20119;-76
2021/07/31 02:20:00;;;;;;;15.90;7.65;;;;;;;;;;4375573;32;20215;-76
2021/07/31 02:22:48;;;;;;;15.48;7.60;;;;;;;;;;4361800;32;20158;-76
2021/07/31 02:25:23;;;;;;;16.37;7.57;;;;;;;;;;4357615;32;20233;-75
2021/07/31 02:27:51;;;;;;;17.75;7.93;;;;;;;;;;4389592;32;20180;-75
2021/07/31 02:30:17;;;;;;;18.25;7.87;;;;;;;;;;4376387;32;20182;-76
2021/07/31 02:32:54;;;;;;;16.75;7.35;;;;;;;;;;4354753;32;20168;-76
2021/07/31 02:35:20;;;;;;;25.48;7.90;;;;;;;;;;4409348;32;20157;-75
2021/07/31 02:38:02;;;;;;;24.90;8.05;;;;;;;;;;4405428;32;20155;-76
2021/07/31 02:40:47;;;;;;;24.17;8.43;;;;;;;;;;4337215;32;20224;-76
2021/07/31 02:43:12;;;;;;;17.55;8.68;;;;;;;;;;4350513;32;20195;-77
2021/07/31 02:45:37;;;;;;;22.67;9.77;;;;;;;;;;4346786;32;20222;-75
2021/07/31 02:48:04;;;;;;;16.80;9.02;;;;;;;;;;4369356;32;20146;-77
2021/07/31 02:50:30;;;;;;;21.00;10.48;;;;;;;;;;4373348;32;20174;-76
2021/07/31 02:53:02;;;;;;;22.37;11.00;;;;;;;;;;4361129;32;20246;-76
2021/07/31 02:55:28;;;;;;;21.08;10.55;;;;;;;;;;4363383;32;20231;-76
2021/07/31 02:57:53;;;;;;;21.92;10.15;;;;;;;;;;4361398;32;20163;-76
2021/07/31 03:00:18;;;;;;;27.30;9.43;;;;;;;;;;4361401;32;20207;-76
2021/07/31 03:02:47;;;;;;;21.65;8.52;;;;;;;;;;4346095;33;20189;-76
2021/07/31 03:05:12;;;;;;;15.32;8.57;;;;;;;;;;4349015;32;20174;-77
2021/07/31 03:07:54;;;;;;;17.80;9.30;;;;;;;;;;4346142;32;20631;-77
2021/07/31 03:10:19;;;;;;;18.62;8.45;;;;;;;;;;4345525;33;20181;-77
2021/07/31 03:12:44;;;;;;;16.58;8.10;;;;;;;;;;4346336;32;20514;-76
2021/07/31 03:15:10;;;;;;;17.12;8.35;;;;;;;;;;4346507;33;20151;-77
2021/07/31 03:17:38;;;;;;;19.15;8.98;;;;;;;;;;4346290;32;20192;-77
2021/07/31 03:20:03;;;;;;;17.23;8.18;;;;;;;;;;4346714;33;20206;-77
2021/07/31 03:22:31;;;;;;;17.87;8.70;;;;;;;;;;4346293;32;20167;-77
2021/07/31 03:24:57;;;;;;;15.05;7.82;;;;;;;;;;4359544;33;20126;-76
2021/07/31 03:27:23;;;;;;;14.85;8.13;;;;;;;;;;4359536;33;20206;-76
2021/07/31 03:29:48;;;;;;;15.10;7.15;;;;;;;;;;4346336;33;20199;-77
2021/07/31 03:32:13;;;;;;;15.32;6.85;;;;;;;;;;4359662;33;20153;-77
2021/07/31 03:34:39;;;;;;;14.02;7.12;;;;;;;;;;4345894;33;20159;-77
2021/07/31 03:37:04;;;;;;;16.35;7.32;;;;;;;;;;4350994;32;20229;-76
2021/07/31 03:39:29;;;;;;;14.05;6.87;;;;;;;;;;4346108;33;20182;-77
2021/07/31 03:41:57;;;;;;;15.27;6.45;;;;;;;;;;4342906;32;20195;-76
2021/07/31 03:44:22;;;;;;;15.35;6.90;;;;;;;;;;4343273;33;20151;-76
2021/07/31 03:46:49;;;;;;;12.98;6.07;;;;;;;;;;4343697;33;20213;-76
2021/07/31 03:49:15;;;;;;;12.50;5.97;;;;;;;;;;4343215;32;20178;-77
2021/07/31 03:51:49;;;;;;;12.50;6.12;;;;;;;;;;4343098;33;20159;-76
2021/07/31 03:54:17;;;;;;;10.63;6.20;;;;;;;;;;4364664;32;20168;-77
2021/07/31 03:56:42;;;;;;;15.50;7.65;;;;;;;;;;4407686;32;20185;-77
2021/07/31 03:59:07;;;;;;;15.60;7.80;;;;;;;;;;4407825;32;20188;-78
2021/07/31 04:01:33;;;;;;;14.63;7.37;;;;;;;;;;4408149;32;20184;-77
2021/07/31 04:03:58;;;;;;;14.75;7.72;;;;;;;;;;4395594;32;20202;-76
2021/07/31 04:06:23;;;;;;;12.35;7.00;;;;;;;;;;4343285;33;20182;-77
2021/07/31 04:08:48;;;;;;;12.32;6.50;;;;;;;;;;4343274;33;20485;-78
2021/07/31 04:11:14;;;;;;;14.73;6.62;;;;;;;;;;4344184;33;20544;-77
2021/07/31 04:13:45;;;;;;;12.85;6.30;;;;;;;;;;4346434;32;20131;-76
2021/07/31 04:16:10;;;;;;;10.93;6.30;;;;;;;;;;4385544;32;20180;-77
2021/07/31 04:18:36;;;;;;;14.02;6.12;;;;;;;;;;4420066;32;20142;-78
2021/07/31 04:21:05;;;;;;;11.07;5.80;;;;;;;;;;4400422;32;20638;-78
2021/07/31 04:23:30;;;;;;;10.35;4.90;;;;;;;;;;4408748;32;20710;-77
2021/07/31 04:25:55;;;;;;;10.32;4.65;;;;;;;;;;4421565;32;20131;-77
2021/07/31 04:28:20;;;;;;;8.95;4.45;;;;;;;;;;4407371;32;20166;-77
2021/07/31 04:30:46;;;;;;;5.75;4.60;;;;;;;;;;4421400;32;20141;-77
2021/07/31 04:33:11;;;;;;;9.40;4.20;;;;;;;;;;4407292;32;20665;-77
2021/07/31 04:36:06;;;;;;;;;;;;;;;;;;;;;
2021/07/31 04:38:35;;;;;;;12.18;4.05;;;;;;;;;;4417181;32;20149;-77
2021/07/31 04:41:21;;;;;;;8.52;3.25;;;;;;;;;;4393973;32;20186;-77
2021/07/31 04:43:49;;;;;;;7.32;3.50;;;;;;;;;;4343404;33;20170;-77
2021/07/31 04:46:14;;;;;;;5.40;3.10;;;;;;;;;;4330571;33;20186;-77
2021/07/31 04:48:39;;;;;;;4.32;2.90;;;;;;;;;;4330182;33;20597;-77
2021/07/31 04:51:05;;;;;;;8.25;3.40;;;;;;;;;;4330279;33;20159;-77
2021/07/31 04:53:30;;;;;;;6.37;3.00;;;;;;;;;;4330546;32;20159;-77
2021/07/31 04:55:56;;;;;;;9.65;3.17;;;;;;;;;;4338908;32;20167;-78
2021/07/31 04:58:24;;;;;;;5.55;2.62;;;;;;;;;;4358333;33;20248;-77
2021/07/31 05:00:50;;;;;;;6.18;3.03;;;;;;;;;;4344732;33;20159;-78
2021/07/31 05:03:22;;;;;;;7.22;2.70;;;;;;;;;;4347340;33;20216;-77
2021/07/31 05:05:50;;;;;;;4.78;3.10;;;;;;;;;;4342357;33;20151;-77
2021/07/31 05:08:15;;;;;;;5.03;3.20;;;;;;;;;;4330455;33;20601;-77
2021/07/31 05:10:41;;;;;;;8.20;3.17;;;;;;;;;;4344333;32;20212;-77
2021/07/31 05:13:07;;;;;;;6.93;2.95;;;;;;;;;;4345182;33;20215;-77
2021/07/31 05:15:34;;;;;;;11.82;3.70;;;;;;;;;;4344856;33;20170;-77
2021/07/31 05:18:08;;;;;;;9.00;3.47;;;;;;;;;;4344611;33;20526;-78
2021/07/31 05:20:34;;;;;;;6.22;3.50;;;;;;;;;;4345254;33;20155;-78
2021/07/31 05:23:00;;;;;;;10.25;3.50;;;;;;;;;;4344209;33;20204;-78
2021/07/31 05:25:25;;;;;;;6.70;3.65;;;;;;;;;;4344626;33;20216;-77
2021/07/31 05:27:51;;;;;;;9.68;4.78;;;;;;;;;;4336784;33;20206;-77
2021/07/31 05:30:16;;;;;;;7.43;4.07;;;;;;;;;;4342866;33;20285;-78
2021/07/31 05:32:42;;;;;;;5.85;3.97;;;;;;;;;;4342184;33;20159;-79
2021/07/31 05:35:13;;;;;;;7.28;4.03;;;;;;;;;;4341953;33;20194;-77
2021/07/31 05:37:38;;;;;;;7.72;3.65;;;;;;;;;;4343664;33;20194;-77
2021/07/31 05:40:04;;;;;;;12.20;3.62;;;;;;;;;;4329966;32;20163;-78
2021/07/31 05:42:32;;;;;;;7.22;3.40;;;;;;;;;;4350164;32;20182;-77
2021/07/31 05:45:00;;;;;;;8.50;3.53;;;;;;;;;;4358918;32;20170;-78
2021/07/31 05:47:31;;;;;;;6.05;3.40;;;;;;;;;;4359017;32;20279;-78
2021/07/31 05:49:57;;;;;;;8.93;3.60;;;;;;;;;;4360468;32;20162;-77
2021/07/31 05:52:26;;;;;;;7.85;3.35;;;;;;;;;;4359617;32;20214;-77
2021/07/31 05:55:07;;;;;;;5.53;3.30;;;;;;;;;;4358954;32;20633;-79
2021/07/31 05:57:35;;;;;;;7.32;3.40;;;;;;;;;;4360139;32;20155;-78
2021/07/31 06:00:01;;;;;;;8.13;3.62;;;;;;;;;;4372953;32;20138;-77
2021/07/31 06:02:26;;;;;;;4.60;2.87;;;;;;;;;;4359253;32;20608;-77
2021/07/31 06:04:51;;;;;;;6.65;3.28;;;;;;;;;;4359432;32;20225;-78
2021/07/31 06:07:16;;;;;;;6.32;3.10;;;;;;;;;;4358770;32;20185;-77
2021/07/31 06:09:42;;;;;;;7.05;3.37;;;;;;;;;;4372957;32;20469;-78
2021/07/31 06:12:09;;;;;;;6.18;3.10;;;;;;;;;;4348098;32;20233;-77
2021/07/31 06:14:35;;;;;;;6.93;3.40;;;;;;;;;;4343679;32;20174;-78
2021/07/31 06:17:00;;;;;;;8.40;3.20;;;;;;;;;;4357095;32;20253;-78
2021/07/31 06:19:27;;;;;;;5.62;3.12;;;;;;;;;;4345783;32;20205;-77
2021/07/31 06:21:52;;;;;;;4.15;2.75;;;;;;;;;;4372076;32;20173;-79
2021/07/31 06:24:19;;;;;;;5.87;2.67;;;;;;;;;;4359610;32;20229;-78
2021/07/31 06:26:44;;;;;;;3.58;2.60;;;;;;;;;;4351209;32;20305;-78
2021/07/31 06:31:47;;;;;;;5.68;2.47;;;;;;;;;;4357785;33;20505;-77
2021/07/31 06:34:13;;;;;;;5.53;2.53;;;;;;;;;;4343419;32;20163;-78
2021/07/31 06:36:38;;;;;;;7.78;2.60;;;;;;;;;;4343865;33;20198;-77
2021/07/31 06:39:04;;;;;;;5.05;2.42;;;;;;;;;;4343777;33;20163;-78
2021/07/31 06:41:29;;;;;;;5.05;2.33;;;;;;;;;;4348477;32;20234;-78
2021/07/31 06:43:55;;;;;;;5.25;2.80;;;;;;;;;;4359173;32;20205;-78
2021/07/31 06:46:23;;;;;;;6.50;2.35;;;;;;;;;;4360973;32;20182;-77
2021/07/31 06:48:48;;;;;;;7.85;2.90;;;;;;;;;;4360968;32;20155;-77
2021/07/31 06:51:15;;;;;;;6.15;2.92;;;;;;;;;;4361695;32;20162;-76
2021/07/31 06:53:40;;;;;;;8.40;2.90;;;;;;;;;;4361123;32;20205;-77
2021/07/31 06:56:05;;;;;;;5.03;2.65;;;;;;;;;;4361170;32;20163;-77
2021/07/31 06:58:33;;;;;;;5.55;2.97;;;;;;;;;;4374112;32;20158;-79
2021/07/31 07:00:58;;;;;;;5.85;3.12;;;;;;;;;;4360300;32;20198;-77
2021/07/31 07:03:24;;;;;;;7.35;2.83;;;;;;;;;;4360886;32;20179;-77
2021/07/31 07:05:49;;;;;;;7.05;2.37;;;;;;;;;;4359273;32;20162;-78
2021/07/31 07:08:14;;;;;;;7.20;2.60;;;;;;;;;;4360834;32;20560;-77
2021/07/31 07:10:39;;;;;;;6.95;3.12;;;;;;;;;;4360533;32;20599;-78
2021/07/31 07:13:08;;;;;;;8.45;2.80;;;;;;;;;;4365596;32;20147;-78
2021/07/31 07:15:34;;;;;;;6.47;2.72;;;;;;;;;;4359283;32;20178;-77
2021/07/31 07:18:00;;;;;;;8.70;2.87;;;;;;;;;;4348200;32;20561;-77
2021/07/31 07:20:26;;;;;;;11.07;4.22;;;;;;;;;;4360895;32;20241;-74
2021/07/31 07:22:51;;;;;;;10.77;5.18;;;;;;;;;;4360613;32;20197;-76
2021/07/31 07:25:17;;;;;;;11.90;5.15;;;;;;;;;;4360942;32;20163;-76
2021/07/31 07:27:42;;;;;;;6.43;3.85;;;;;;;;;;4359335;32;20167;-76
2021/07/31 07:30:08;;;;;;;6.50;3.75;;;;;;;;;;4346078;33;20636;-77
2021/07/31 07:32:34;;;;;;;10.55;4.00;;;;;;;;;;4345834;32;20187;-77
2021/07/31 07:34:59;;;;;;;4.55;3.35;;;;;;;;;;4346473;32;20511;-77
2021/07/31 07:37:28;;;;;;;9.20;3.37;;;;;;;;;;4359162;33;20139;-76
2021/07/31 07:39:53;;;;;;;6.68;3.58;;;;;;;;;;4359509;33;20144;-76
2021/07/31 07:42:19;;;;;;;8.57;3.45;;;;;;;;;;4352694;33;20226;-76
2021/07/31 07:44:44;;;;;;;8.52;3.33;;;;;;;;;;4359938;32;20136;-76
2021/07/31 07:47:23;;;;;;;4.35;3.10;;;;;;;;;;4355670;32;20503;-76
2021/07/31 07:50:10;;;;;;;8.52;3.33;;;;;;;;;;4363124;32;20206;-77
2021/07/31 07:52:34;;;;;;;6.00;2.90;;;;;;;;;;4354278;32;20167;-77
2021/07/31 07:54:59;;;;;;;7.18;3.70;;;;;;;;;;4344956;32;20277;-75
2021/07/31 07:57:36;;;;;;;6.45;3.42;;;;;;;;;;4350066;32;20221;-75
2021/07/31 08:00:20;;;;;;;7.90;4.10;;;;;;;;;;4352924;32;20169;-75
2021/07/31 08:03:08;;;;;;;11.40;4.37;;;;;;;;;;4356253;32;20155;-78
2021/07/31 08:05:38;;;;;;;7.45;3.83;;;;;;;;;;4357365;33;20182;-76
2021/07/31 08:08:04;;;;;;;9.52;4.68;;;;;;;;;;4355701;33;20155;-75
2021/07/31 08:10:29;;;;;;;5.68;3.75;;;;;;;;;;4345715;32;20197;-76
2021/07/31 08:12:54;;;;;;;9.88;4.30;;;;;;;;;;4344777;33;20588;-75
2021/07/31 08:15:19;;;;;;;8.25;4.78;;;;;;;;;;4347950;32;20210;-75
2021/07/31 08:18:13;;;;;;;7.70;5.12;;;;;;;;;;4357306;32;20166;-76
2021/07/31 08:20:38;;;;;;;8.98;5.10;;;;;;;;;;4356741;32;20198;-76
2021/07/31 08:23:04;;;;;;;9.00;5.32;;;;;;;;;;4347296;32;20190;-77
2021/07/31 08:25:29;;;;;;;9.90;6.20;;;;;;;;;;4345149;32;20167;-75
2021/07/31 08:27:57;;;;;;;8.93;5.75;;;;;;;;;;4343959;32;20220;-76
2021/07/31 08:30:23;;;;;;;11.27;6.35;;;;;;;;;;4346032;32;20170;-75
2021/07/31 08:32:51;;;;;;;9.50;5.70;;;;;;;;;;4345088;33;20252;-75
2021/07/31 08:35:16;;;;;;;14.10;6.10;;;;;;;;;;4368667;32;20588;-76
2021/07/31 08:37:41;;;;;;;11.25;5.60;;;;;;;;;;4409355;32;20163;-77
2021/07/31 08:40:08;;;;;;;12.55;5.65;;;;;;;;;;4409721;32;20497;-75
2021/07/31 08:42:34;;;;;;;10.90;5.97;;;;;;;;;;4359228;32;20155;-76
2021/07/31 08:44:59;;;;;;;13.82;6.20;;;;;;;;;;4373847;32;20183;-76
2021/07/31 08:47:25;;;;;;;9.75;5.93;;;;;;;;;;4354389;32;20233;-76
2021/07/31 08:49:55;;;;;;;11.43;6.35;;;;;;;;;;4345693;32;20174;-77
2021/07/31 08:52:23;;;;;;;9.55;5.57;;;;;;;;;;4354254;33;20147;-78
2021/07/31 08:54:51;;;;;;;13.18;6.70;;;;;;;;;;4345538;32;20198;-77
2021/07/31 08:57:17;;;;;;;13.32;6.82;;;;;;;;;;4354975;32;20205;-77
2021/07/31 08:59:43;;;;;;;13.18;6.90;;;;;;;;;;4353954;32;20169;-75
2021/07/31 09:02:19;;;;;;;14.48;6.82;;;;;;;;;;4352749;32;20626;-76
2021/07/31 09:04:44;;;;;;;12.23;6.47;;;;;;;;;;4346059;32;20182;-76
2021/07/31 09:07:15;;;;;;;15.32;6.37;;;;;;;;;;4351357;32;20194;-75
2021/07/31 09:19:08;;;;;;;;;;;;;;;;;;;;;
2021/07/31 09:21:29;;;;;;;15.80;9.07;;;;;;;;;;4383022;32;20185;-76
2021/07/31 09:24:03;;;;;;;12.27;7.72;;;;;;;;;;4368783;32;20178;-77
2021/07/31 09:27:09;;;;;;;;;;;;;;;;;;;;;
2021/07/31 09:29:43;;;;;;;;;;;;;;;;;;;;;
2021/07/31 09:32:18;;;;;;;23.25;10.20;;;;;;;;;;4357793;33;20205;-75
2021/07/31 09:35:05;;;;;;;18.33;8.60;;;;;;;;;;4390131;32;20529;-77
2021/07/31 09:37:29;;;;;;;10.68;7.45;;;;;;;;;;4364855;32;20284;-76
2021/07/31 09:40:13;;;;;;;13.40;8.13;;;;;;;;;;4361400;32;20164;-76
2021/07/31 09:43:20;;;;;;;13.18;6.22;;;;;;;;;;4347327;32;20214;-77
2021/07/31 09:45:49;;;;;;;11.57;5.65;;;;;;;;;;4352889;33;20234;-77
2021/07/31 09:48:14;;;;;;;11.60;5.12;;;;;;;;;;4329724;32;20509;-77
2021/07/31 09:50:57;;;;;;;7.43;3.92;;;;;;;;;;4340946;32;20228;-77
2021/07/31 09:53:53;;;;;;;6.50;3.95;;;;;;;;;;4353617;32;20159;-74
2021/07/31 09:56:35;;;;;;;6.47;3.10;;;;;;;;;;4341743;32;20218;-76
2021/07/31 09:59:21;;;;;;;5.72;3.12;;;;;;;;;;4346265;32;20174;-76
2021/07/31 10:04:41;;;;;;;8.27;4.72;;;;;;;;;;4372154;32;20159;-77
2021/07/31 10:07:07;;;;;;;7.45;5.15;;;;;;;;;;4351021;32;20209;-77
2021/07/31 10:09:35;;;;;;;9.82;5.72;;;;;;;;;;4340867;32;20636;-77
2021/07/31 10:12:03;;;;;;;8.10;5.65;;;;;;;;;;4340589;32;20229;-77
2021/07/31 10:14:35;;;;;;;9.75;5.00;;;;;;;;;;4351333;32;20217;-78
2021/07/31 10:17:01;;;;;;;9.98;4.78;;;;;;;;;;4344252;32;20488;-76
2021/07/31 10:19:44;;;;;;;7.35;4.70;;;;;;;;;;4345321;32;20171;-77
2021/07/31 10:22:10;;;;;;;7.97;4.65;;;;;;;;;;4346823;32;20719;-77
2021/07/31 10:25:11;;;;;;;7.37;4.85;;;;;;;;;;4346480;33;20580;-78
2021/07/31 10:27:36;;;;;;;6.93;4.35;;;;;;;;;;4346648;33;20174;-78
2021/07/31 10:30:05;;;;;;;8.15;3.95;;;;;;;;;;4347146;32;20155;-78
2021/07/31 10:32:42;;;;;;;6.28;3.40;;;;;;;;;;4346850;32;20171;-77
2021/07/31 10:35:23;;;;;;;5.30;2.80;;;;;;;;;;4361234;32;20190;-77
2021/07/31 10:37:52;;;;;;;4.90;3.15;;;;;;;;;;4360693;33;20716;-79
2021/07/31 10:40:26;;;;;;;7.15;3.67;;;;;;;;;;4346439;33;20595;-78
2021/07/31 10:42:54;;;;;;;4.72;3.22;;;;;;;;;;4359989;32;20134;-78
2021/07/31 10:45:24;;;;;;;5.95;2.78;;;;;;;;;;4408827;32;20489;-79
2021/07/31 10:47:50;;;;;;;5.60;3.17;;;;;;;;;;4408556;32;20258;-78
2021/07/31 10:50:26;;;;;;;8.38;3.15;;;;;;;;;;4408949;32;20274;-74
2021/07/31 10:53:11;;;;;;;8.07;3.25;;;;;;;;;;4405045;32;20214;-78
2021/07/31 10:55:38;;;;;;;8.48;3.30;;;;;;;;;;4408202;32;20169;-77
2021/07/31 10:58:09;;;;;;;6.78;3.50;;;;;;;;;;4408141;32;20213;-77
2021/07/31 11:00:34;;;;;;;7.85;3.60;;;;;;;;;;4408315;32;20192;-76
2021/07/31 11:03:31;;;;;;;5.93;3.00;;;;;;;;;;4408126;32;20594;-76
2021/07/31 11:06:06;;;;;;;5.80;3.10;;;;;;;;;;4402556;32;20629;-77
2021/07/31 11:08:54;;;;;;;6.57;3.30;;;;;;;;;;4408445;32;20590;-78
2021/07/31 11:11:19;;;;;;;6.72;3.20;;;;;;;;;;4408451;32;20201;-77
2021/07/31 11:13:45;;;;;;;3.53;2.95;;;;;;;;;;4408297;32;20223;-79
2021/07/31 11:16:13;;;;;;;4.55;2.58;;;;;;;;;;4408682;32;20184;-79
2021/07/31 11:18:49;;;;;;;7.65;3.00;;;;;;;;;;4408034;32;20430;-78
2021/07/31 11:21:17;;;;;;;4.95;2.22;;;;;;;;;;4407812;32;20583;-78
2021/07/31 11:23:59;;;;;;;5.18;2.80;;;;;;;;;;4408088;32;20166;-79
2021/07/31 11:26:48;;;;;;;6.90;2.97;;;;;;;;;;4408427;32;20222;-78
2021/07/31 11:29:21;;;;;;;4.35;2.55;;;;;;;;;;4412946;32;20184;-78
2021/07/31 11:32:13;;;;;;;5.12;2.12;;;;;;;;;;4402315;32;20212;-78
2021/07/31 11:34:40;;;;;;;7.40;2.85;;;;;;;;;;4405020;32;20197;-76
2021/07/31 11:37:15;;;;;;;5.40;3.05;;;;;;;;;;4410863;32;20199;-78
2021/07/31 11:39:49;;;;;;;3.80;1.80;;;;;;;;;;4405348;32;20189;-78
2021/07/31 11:42:22;;;;;;;4.07;1.95;;;;;;;;;;4407447;32;20185;-74
2021/07/31 11:44:47;;;;;;;4.37;2.33;;;;;;;;;;4364390;32;20236;-77
2021/07/31 11:47:13;;;;;;;4.25;2.15;;;;;;;;;;4342761;32;20175;-77
2021/07/31 11:49:41;;;;;;;4.57;2.20;;;;;;;;;;4345154;33;20558;-78
2021/07/31 11:52:10;;;;;;;3.85;2.37;;;;;;;;;;4402160;32;20213;-79
2021/07/31 11:54:42;;;;;;;6.62;2.60;;;;;;;;;;4349431;32;20465;-78
2021/07/31 11:57:10;;;;;;;6.15;2.65;;;;;;;;;;4370618;32;20600;-78
2021/07/31 11:59:44;;;;;;;5.40;2.33;;;;;;;;;;4422738;32;20583;-78
2021/07/31 12:02:12;;;;;;;6.00;2.60;;;;;;;;;;4337644;33;20281;-78
2021/07/31 12:04:41;;;;;;;3.45;2.45;;;;;;;;;;4345161;33;20211;-75
2021/07/31 12:07:09;;;;;;;9.52;3.37;;;;;;;;;;4345180;33;20473;-78
2021/07/31 12:09:36;;;;;;;7.00;2.75;;;;;;;;;;4344970;33;20205;-78
2021/07/31 12:12:07;;;;;;;7.65;3.55;;;;;;;;;;4358438;33;20173;-79
2021/07/31 12:14:36;;;;;;;5.55;3.70;;;;;;;;;;4345298;32;20227;-82
2021/07/31 12:17:23;;;;;;;4.72;3.30;;;;;;;;;;4345503;33;20174;-82
2021/07/31 12:19:51;;;;;;;4.75;2.87;;;;;;;;;;4346973;32;20225;-83
2021/07/31 12:22:27;;;;;;;5.03;3.30;;;;;;;;;;4347473;32;20637;-83
2021/07/31 12:25:15;;;;;;;6.93;3.20;;;;;;;;;;4360092;32;20173;-83
2021/07/31 12:27:57;;;;;;;3.75;2.40;;;;;;;;;;4348594;32;20164;-81
2021/07/31 12:30:41;;;;;;;;;;;;;;;;;;;;;
2021/07/31 12:33:27;;;;;;;5.43;2.97;;;;;;;;;;4362207;32;20150;-79
2021/07/31 12:35:57;;;;;;;5.55;3.37;;;;;;;;;;4381605;32;20165;-80
2021/07/31 12:38:23;;;;;;;4.55;2.90;;;;;;;;;;4399055;32;20222;-80
2021/07/31 12:40:56;;;;;;;5.78;3.25;;;;;;;;;;4330280;33;20531;-77
2021/07/31 12:43:23;;;;;;;8.45;3.47;;;;;;;;;;4342891;32;20171;-75
2021/07/31 12:45:54;;;;;;;7.97;4.60;;;;;;;;;;4335342;32;20236;-76
2021/07/31 12:48:20;;;;;;;8.90;4.80;;;;;;;;;;4336621;32;20200;-78
2021/07/31 12:50:45;;;;;;;8.98;5.30;;;;;;;;;;4337349;32;20243;-75
2021/07/31 12:53:15;;;;;;;8.23;5.47;;;;;;;;;;4353361;32;20239;-75
2021/07/31 12:55:44;;;;;;;8.27;4.80;;;;;;;;;;4350891;32;20234;-76
2021/07/31 12:58:22;;;;;;;12.07;6.43;;;;;;;;;;4333535;32;20232;-76
2021/07/31 13:00:50;;;;;;;10.70;7.60;;;;;;;;;;4329876;32;20155;-75
2021/07/31 13:04:01;;;;;;;9.27;6.60;;;;;;;;;;4342525;32;20195;-76
2021/07/31 13:09:41;;;;;;;;;;;;;;;;;;;;;
2021/07/31 13:12:28;;;;;;;12.25;7.53;;;;;;;;;;4328750;33;20152;-76
2021/07/31 13:18:07;;;;;;;12.73;7.40;;;;;;;;;;4343438;33;20619;-76
2021/07/31 13:20:41;;;;;;;10.68;7.15;;;;;;;;;;4329822;33;20616;-77
2021/07/31 13:23:10;;;;;;;8.85;5.85;;;;;;;;;;4330552;33;20239;-77
2021/07/31 13:25:56;;;;;;;10.93;6.18;;;;;;;;;;4331173;32;20150;-77
2021/07/31 13:28:52;;;;;;;6.37;4.70;;;;;;;;;;4338069;33;20174;-78
2021/07/31 13:34:45;;;;;;;;;;;;;;;;;;;;;
2021/07/31 13:37:21;;;;;;;5.10;3.20;;;;;;;;;;4283533;33;20141;-77
2021/07/31 13:39:53;;;;;;;5.70;3.37;;;;;;;;;;4309863;33;20198;-77
2021/07/31 13:42:27;;;;;;;4.15;3.70;;;;;;;;;;4342139;32;20190;-77
2021/07/31 13:44:52;;;;;;;4.07;3.53;;;;;;;;;;4339478;32;20226;-76
2021/07/31 13:47:17;;;;;;;6.50;3.70;;;;;;;;;;4344383;32;20162;-76
2021/07/31 13:50:45;;;;;;;8.30;4.20;;;;;;;;;;4355437;33;20252;-77
2021/07/31 13:53:08;;;;;;;4.97;3.65;;;;;;;;;;4339415;33;20622;-76
2021/07/31 13:55:49;;;;;;;8.65;3.70;;;;;;;;;;4332450;32;20499;-76
2021/07/31 13:59:12;;;;;;;5.30;3.97;;;;;;;;;;4331979;32;20724;-77
2021/07/31 14:01:28;;;;;;;;;;;;;;;;;;;;;
2021/07/31 14:04:00;;;;;;;6.22;3.90;;;;;;;;;;4346153;32;20185;-76
2021/07/31 14:06:35;;;;;;;5.90;3.20;;;;;;;;;;4332125;32;20167;-77
2021/07/31 14:09:00;;;;;;;5.47;2.90;;;;;;;;;;4331953;33;20223;-76
2021/07/31 14:11:44;;;;;;;2.78;2.37;;;;;;;;;;4334433;33;20652;-77
2021/07/31 14:14:11;;;;;;;5.15;2.58;;;;;;;;;;4359420;33;20610;-76
2021/07/31 14:16:37;;;;;;;5.45;2.72;;;;;;;;;;4350652;33;20185;-80
2021/07/31 14:19:05;;;;;;;6.95;3.08;;;;;;;;;;4346825;33;20167;-79
2021/07/31 14:21:30;;;;;;;5.85;2.67;;;;;;;;;;4345984;33;20230;-78
2021/07/31 14:24:03;;;;;;;3.55;2.67;;;;;;;;;;4345785;33;20244;-76
2021/07/31 14:26:28;;;;;;;5.30;2.95;;;;;;;;;;4347060;33;20533;-77
2021/07/31 14:28:54;;;;;;;5.18;2.92;;;;;;;;;;4345882;33;20610;-77
2021/07/31 14:31:21;;;;;;;3.65;2.10;;;;;;;;;;4372432;32;20204;-76
2021/07/31 14:33:46;;;;;;;3.45;2.15;;;;;;;;;;4351867;32;20209;-76
2021/07/31 14:36:12;;;;;;;4.40;2.10;;;;;;;;;;4350489;32;20163;-77
2021/07/31 14:38:37;;;;;;;6.18;2.75;;;;;;;;;;4344068;32;20607;-77
2021/07/31 14:41:06;;;;;;;4.75;2.97;;;;;;;;;;4356790;32;20772;-77
2021/07/31 14:43:37;;;;;;;3.97;2.42;;;;;;;;;;4345034;32;20271;-76
2021/07/31 14:46:12;;;;;;;5.35;2.83;;;;;;;;;;4346752;32;20266;-77
2021/07/31 14:48:40;;;;;;;5.00;3.25;;;;;;;;;;4352526;32;20193;-78
2021/07/31 14:51:15;;;;;;;5.35;2.97;;;;;;;;;;4345457;33;20246;-77
2021/07/31 14:53:43;;;;;;;5.07;3.45;;;;;;;;;;4346225;33;20158;-76
2021/07/31 14:56:15;;;;;;;6.35;3.12;;;;;;;;;;4345920;32;20159;-77
2021/07/31 14:59:13;;;;;;;4.22;2.65;;;;;;;;;;4346461;32;20159;-77
2021/07/31 15:01:38;;;;;;;6.55;2.62;;;;;;;;;;4359435;32;20704;-76
2021/07/31 15:04:04;;;;;;;4.43;2.90;;;;;;;;;;4346787;32;20168;-77
2021/07/31 15:06:35;;;;;;;3.72;2.45;;;;;;;;;;4346056;33;20356;-77
2021/07/31 15:09:01;;;;;;;5.82;4.22;;;;;;;;;;4346321;33;20163;-77
2021/07/31 15:11:27;;;;;;;7.30;2.72;;;;;;;;;;4348763;32;20216;-78
2021/07/31 15:13:57;;;;;;;5.80;3.00;;;;;;;;;;4346393;33;20158;-78
2021/07/31 15:16:23;;;;;;;5.30;2.90;;;;;;;;;;4350991;33;20206;-79
2021/07/31 15:18:48;;;;;;;7.40;2.70;;;;;;;;;;4358018;33;20573;-79
2021/07/31 15:21:14;;;;;;;6.05;3.35;;;;;;;;;;4357749;33;20260;-77
2021/07/31 15:23:52;;;;;;;4.40;2.80;;;;;;;;;;4357908;33;20206;-78
2021/07/31 15:26:28;;;;;;;3.60;2.40;;;;;;;;;;4358275;33;20251;-78
2021/07/31 15:28:53;;;;;;;6.72;2.65;;;;;;;;;;4358714;32;20163;-78
2021/07/31 15:31:37;;;;;;;3.70;2.30;;;;;;;;;;4358568;33;20185;-78